Aérodrome :







RETROUVEZ-NOUS SUR...

 
LOGIN :

S'inscrire | Disclaimer

   EN    FR    IT 

 









Légende :    VFR   VFR Marginal   IFR   IFR Intensif   IFR Très Intensif
Visi : 
Plafond : 
>= 8 km
>= 3000ft
5 à 8 km
1000 à 3000 ft
1500m à 5 km
500 à 1000 ft
800 à 1500m
200 à 500 ft
< 800m
< 200 ft
Symboles :   Orages  Brouillard  Fortes neiges  Fortes précipitations  Vent > 20 kt






- Altitude de l'aérodrome : 56 ft
- Code IATA : MCP


SBMQ - Macapa Int.

DERNIER METAR :
  • 241800Z 01005KT 9999 SCT020 FEW040TCU BKN080 29/27 Q1009

METARs EXPIRÉS :
  • 241700Z 02007KT 9999 BKN020 FEW040TCU BKN080 32/25 Q1010
  • 241600Z 06009KT 9999 BKN020 BKN080 33/26 Q1011

TAF TAF SBMQ
Valide du 24 à 18h jusqu'au 25 à 18h UTC


241500Z 2418/2518 06005KT 9999 SCT020 FEW025TCU TN25/2509Z TX30/2517Z
TEMPO 2418/2421 4000 RA BKN020
BECMG 2422/2424 SCT015
BECMG 2501/2504 36005KT
BECMG 2512/2514 03005KT SCT020
BECMG 2515/2517 08010KT SCT025 FEW035TCU RMK PGZ



MET'MAP, la Météo Aéronautique d'un coup d'oeil ! - Copyright ORBIFLY Décembre 2007 - Disclaimer

ORBIFLY MET'MAP TEAM :

Programmation & Développement : Alexandra Zaïnal
Sur une idée originale de : Baudouin d'Aumeries
Assistance à la programmation : Marc-Olivier Méhu
Soutien technique & logistique : Manuel Goepfert

Contact : metmap@orbifly.com




SOURCES & CREDITS :

   NOAA